sensor_id;sensor_type;location;lat;lon;timestamp;P1;durP1;ratioP1;P2;durP2;ratioP2
25752;SDS011;13600;50.816;4.416;2023-01-10T00:02:13;22.02;;;4.13;;
25752;SDS011;13600;50.816;4.416;2023-01-10T00:04:39;16.63;;;3.42;;
25752;SDS011;13600;50.816;4.416;2023-01-10T00:07:05;22.13;;;3.85;;
25752;SDS011;13600;50.816;4.416;2023-01-10T00:09:30;24.40;;;3.90;;
25752;SDS011;13600;50.816;4.416;2023-01-10T00:11:56;19.45;;;3.80;;
25752;SDS011;13600;50.816;4.416;2023-01-10T00:17:07;26.90;;;4.25;;
25752;SDS011;13600;50.816;4.416;2023-01-10T00:19:32;28.50;;;3.45;;
25752;SDS011;13600;50.816;4.416;2023-01-10T00:21:58;22.25;;;3.92;;
25752;SDS011;13600;50.816;4.416;2023-01-10T00:24:29;19.02;;;3.53;;
25752;SDS011;13600;50.816;4.416;2023-01-10T00:26:55;27.05;;;3.88;;
25752;SDS011;13600;50.816;4.416;2023-01-10T00:29:23;22.10;;;4.05;;
25752;SDS011;13600;50.816;4.416;2023-01-10T00:31:54;17.10;;;3.45;;
25752;SDS011;13600;50.816;4.416;2023-01-10T00:34:21;26.80;;;3.75;;
25752;SDS011;13600;50.816;4.416;2023-01-10T00:36:47;20.13;;;3.83;;
25752;SDS011;13600;50.816;4.416;2023-01-10T00:39:13;18.55;;;4.00;;
25752;SDS011;13600;50.816;4.416;2023-01-10T00:41:40;20.23;;;3.20;;
25752;SDS011;13600;50.816;4.416;2023-01-10T00:44:24;32.08;;;4.30;;
25752;SDS011;13600;50.816;4.416;2023-01-10T00:46:51;22.27;;;3.33;;
25752;SDS011;13600;50.816;4.416;2023-01-10T00:49:17;26.30;;;4.25;;
25752;SDS011;13600;50.816;4.416;2023-01-10T00:51:43;22.50;;;3.40;;
25752;SDS011;13600;50.816;4.416;2023-01-10T00:54:09;25.88;;;4.18;;
25752;SDS011;13600;50.816;4.416;2023-01-10T00:56:36;18.15;;;3.65;;
25752;SDS011;13600;50.816;4.416;2023-01-10T00:59:02;22.52;;;4.38;;
25752;SDS011;13600;50.816;4.416;2023-01-10T01:01:28;19.15;;;3.45;;
25752;SDS011;13600;50.816;4.416;2023-01-10T01:03:53;20.90;;;3.38;;
25752;SDS011;13600;50.816;4.416;2023-01-10T01:06:19;20.45;;;3.72;;
25752;SDS011;13600;50.816;4.416;2023-01-10T01:08:45;23.67;;;4.20;;
25752;SDS011;13600;50.816;4.416;2023-01-10T01:11:10;20.33;;;3.17;;
25752;SDS011;13600;50.816;4.416;2023-01-10T01:13:36;21.83;;;3.75;;
25752;SDS011;13600;50.816;4.416;2023-01-10T01:16:02;23.63;;;3.47;;
25752;SDS011;13600;50.816;4.416;2023-01-10T01:18:27;23.13;;;3.92;;
25752;SDS011;13600;50.816;4.416;2023-01-10T01:20:55;22.55;;;3.72;;
25752;SDS011;13600;50.816;4.416;2023-01-10T01:23:25;22.98;;;3.72;;
25752;SDS011;13600;50.816;4.416;2023-01-10T01:25:54;23.15;;;3.42;;
25752;SDS011;13600;50.816;4.416;2023-01-10T01:28:20;20.75;;;3.30;;
25752;SDS011;13600;50.816;4.416;2023-01-10T01:30:46;18.45;;;3.58;;
25752;SDS011;13600;50.816;4.416;2023-01-10T01:33:12;22.95;;;3.85;;
25752;SDS011;13600;50.816;4.416;2023-01-10T01:35:41;23.98;;;4.07;;
25752;SDS011;13600;50.816;4.416;2023-01-10T01:38:11;21.42;;;4.35;;
25752;SDS011;13600;50.816;4.416;2023-01-10T01:40:38;23.98;;;3.53;;
25752;SDS011;13600;50.816;4.416;2023-01-10T01:44:09;19.13;;;3.13;;
25752;SDS011;13600;50.816;4.416;2023-01-10T01:48:49;26.08;;;3.38;;
25752;SDS011;13600;50.816;4.416;2023-01-10T01:51:16;21.45;;;3.63;;
25752;SDS011;13600;50.816;4.416;2023-01-10T01:53:46;25.05;;;3.85;;
25752;SDS011;13600;50.816;4.416;2023-01-10T01:56:21;23.75;;;3.95;;
25752;SDS011;13600;50.816;4.416;2023-01-10T02:01:40;24.80;;;3.13;;
25752;SDS011;13600;50.816;4.416;2023-01-10T02:04:07;23.30;;;3.78;;
25752;SDS011;13600;50.816;4.416;2023-01-10T02:06:36;25.42;;;3.63;;
25752;SDS011;13600;50.816;4.416;2023-01-10T02:09:15;27.15;;;3.25;;
25752;SDS011;13600;50.816;4.416;2023-01-10T02:11:48;24.58;;;3.67;;
25752;SDS011;13600;50.816;4.416;2023-01-10T02:14:14;27.15;;;3.97;;
25752;SDS011;13600;50.816;4.416;2023-01-10T02:16:40;27.70;;;4.43;;
25752;SDS011;13600;50.816;4.416;2023-01-10T02:19:07;20.90;;;3.40;;
25752;SDS011;13600;50.816;4.416;2023-01-10T02:22:09;19.80;;;3.75;;
25752;SDS011;13600;50.816;4.416;2023-01-10T02:39:23;23.10;;;3.63;;
25752;SDS011;13600;50.816;4.416;2023-01-10T02:41:51;29.55;;;4.07;;
25752;SDS011;13600;50.816;4.416;2023-01-10T02:49:40;39.03;;;3.72;;
25752;SDS011;13600;50.816;4.416;2023-01-10T02:52:11;23.65;;;3.70;;
25752;SDS011;13600;50.816;4.416;2023-01-10T02:54:42;34.05;;;3.55;;
25752;SDS011;13600;50.816;4.416;2023-01-10T02:57:18;29.73;;;4.05;;
25752;SDS011;13600;50.816;4.416;2023-01-10T03:00:19;26.08;;;4.10;;
25752;SDS011;13600;50.816;4.416;2023-01-10T03:05:54;39.92;;;3.85;;
25752;SDS011;13600;50.816;4.416;2023-01-10T03:11:24;39.53;;;4.72;;
25752;SDS011;13600;50.816;4.416;2023-01-10T03:14:07;31.33;;;4.22;;
25752;SDS011;13600;50.816;4.416;2023-01-10T03:16:40;30.88;;;4.53;;
25752;SDS011;13600;50.816;4.416;2023-01-10T03:19:12;27.48;;;3.90;;
25752;SDS011;13600;50.816;4.416;2023-01-10T03:21:43;30.40;;;3.72;;
25752;SDS011;13600;50.816;4.416;2023-01-10T03:24:10;36.22;;;4.43;;
25752;SDS011;13600;50.816;4.416;2023-01-10T03:26:44;39.03;;;4.55;;
25752;SDS011;13600;50.816;4.416;2023-01-10T03:29:13;26.10;;;3.85;;
25752;SDS011;13600;50.816;4.416;2023-01-10T03:31:53;27.33;;;4.22;;
25752;SDS011;13600;50.816;4.416;2023-01-10T03:34:24;32.63;;;4.15;;
25752;SDS011;13600;50.816;4.416;2023-01-10T03:36:52;28.67;;;4.72;;
25752;SDS011;13600;50.816;4.416;2023-01-10T03:47:34;40.10;;;4.32;;
25752;SDS011;13600;50.816;4.416;2023-01-10T03:52:38;36.60;;;4.47;;
25752;SDS011;13600;50.816;4.416;2023-01-10T03:55:06;36.30;;;3.95;;
25752;SDS011;13600;50.816;4.416;2023-01-10T03:57:34;31.23;;;4.57;;
25752;SDS011;13600;50.816;4.416;2023-01-10T03:59:59;32.33;;;4.45;;
25752;SDS011;13600;50.816;4.416;2023-01-10T04:02:26;33.80;;;4.32;;
25752;SDS011;13600;50.816;4.416;2023-01-10T04:04:56;39.30;;;5.40;;
25752;SDS011;13600;50.816;4.416;2023-01-10T04:07:23;35.45;;;5.25;;
25752;SDS011;13600;50.816;4.416;2023-01-10T04:09:49;39.85;;;4.68;;
25752;SDS011;13600;50.816;4.416;2023-01-10T04:12:14;34.15;;;5.22;;
25752;SDS011;13600;50.816;4.416;2023-01-10T04:14:41;28.77;;;4.00;;
25752;SDS011;13600;50.816;4.416;2023-01-10T04:17:09;44.40;;;5.00;;
25752;SDS011;13600;50.816;4.416;2023-01-10T04:19:35;33.75;;;3.88;;
25752;SDS011;13600;50.816;4.416;2023-01-10T04:22:01;36.35;;;4.95;;
25752;SDS011;13600;50.816;4.416;2023-01-10T04:24:26;43.22;;;4.82;;
25752;SDS011;13600;50.816;4.416;2023-01-10T04:26:52;42.60;;;5.30;;
25752;SDS011;13600;50.816;4.416;2023-01-10T04:29:17;41.25;;;5.55;;
25752;SDS011;13600;50.816;4.416;2023-01-10T04:31:43;34.65;;;4.22;;
25752;SDS011;13600;50.816;4.416;2023-01-10T04:34:09;33.22;;;4.07;;
25752;SDS011;13600;50.816;4.416;2023-01-10T04:36:34;34.83;;;4.40;;
25752;SDS011;13600;50.816;4.416;2023-01-10T04:39:01;41.85;;;5.13;;
25752;SDS011;13600;50.816;4.416;2023-01-10T04:41:27;33.95;;;4.30;;
25752;SDS011;13600;50.816;4.416;2023-01-10T04:43:53;38.30;;;3.88;;
25752;SDS011;13600;50.816;4.416;2023-01-10T04:46:19;42.75;;;5.43;;
25752;SDS011;13600;50.816;4.416;2023-01-10T04:48:44;43.63;;;5.25;;
25752;SDS011;13600;50.816;4.416;2023-01-10T04:51:10;34.97;;;4.53;;
25752;SDS011;13600;50.816;4.416;2023-01-10T04:53:36;33.78;;;4.63;;
25752;SDS011;13600;50.816;4.416;2023-01-10T04:56:02;33.67;;;4.97;;
25752;SDS011;13600;50.816;4.416;2023-01-10T04:58:33;37.40;;;4.05;;
25752;SDS011;13600;50.816;4.416;2023-01-10T05:01:05;28.77;;;4.25;;
25752;SDS011;13600;50.816;4.416;2023-01-10T05:03:35;32.85;;;4.65;;
25752;SDS011;13600;50.816;4.416;2023-01-10T05:06:01;33.80;;;3.72;;
25752;SDS011;13600;50.816;4.416;2023-01-10T05:08:26;38.20;;;4.75;;
25752;SDS011;13600;50.816;4.416;2023-01-10T05:10:53;30.25;;;3.80;;
25752;SDS011;13600;50.816;4.416;2023-01-10T05:13:19;22.50;;;3.95;;
25752;SDS011;13600;50.816;4.416;2023-01-10T05:15:45;38.17;;;4.78;;
25752;SDS011;13600;50.816;4.416;2023-01-10T05:18:11;37.13;;;5.72;;
25752;SDS011;13600;50.816;4.416;2023-01-10T05:20:36;35.35;;;4.90;;
25752;SDS011;13600;50.816;4.416;2023-01-10T05:23:02;37.78;;;4.70;;
25752;SDS011;13600;50.816;4.416;2023-01-10T05:25:28;41.35;;;3.90;;
25752;SDS011;13600;50.816;4.416;2023-01-10T05:27:53;32.90;;;4.95;;
25752;SDS011;13600;50.816;4.416;2023-01-10T05:30:19;28.00;;;4.13;;
25752;SDS011;13600;50.816;4.416;2023-01-10T05:32:45;27.45;;;3.47;;
25752;SDS011;13600;50.816;4.416;2023-01-10T05:35:11;33.08;;;4.22;;
25752;SDS011;13600;50.816;4.416;2023-01-10T05:37:36;30.98;;;3.88;;
25752;SDS011;13600;50.816;4.416;2023-01-10T05:40:02;38.20;;;4.93;;
25752;SDS011;13600;50.816;4.416;2023-01-10T05:42:28;31.55;;;4.32;;
25752;SDS011;13600;50.816;4.416;2023-01-10T05:44:54;39.13;;;4.55;;
25752;SDS011;13600;50.816;4.416;2023-01-10T05:47:19;32.63;;;3.95;;
25752;SDS011;13600;50.816;4.416;2023-01-10T05:49:45;32.17;;;4.38;;
25752;SDS011;13600;50.816;4.416;2023-01-10T05:52:12;34.75;;;3.88;;
25752;SDS011;13600;50.816;4.416;2023-01-10T05:54:38;42.90;;;4.85;;
25752;SDS011;13600;50.816;4.416;2023-01-10T05:57:05;32.67;;;3.78;;
25752;SDS011;13600;50.816;4.416;2023-01-10T05:59:30;37.42;;;4.50;;
25752;SDS011;13600;50.816;4.416;2023-01-10T06:01:56;30.33;;;3.90;;
25752;SDS011;13600;50.816;4.416;2023-01-10T06:04:21;33.08;;;4.13;;
25752;SDS011;13600;50.816;4.416;2023-01-10T06:06:47;38.20;;;4.35;;
25752;SDS011;13600;50.816;4.416;2023-01-10T06:09:13;37.03;;;4.35;;
25752;SDS011;13600;50.816;4.416;2023-01-10T06:11:39;31.77;;;4.07;;
25752;SDS011;13600;50.816;4.416;2023-01-10T06:14:05;34.42;;;4.75;;
25752;SDS011;13600;50.816;4.416;2023-01-10T06:16:31;43.92;;;5.10;;
25752;SDS011;13600;50.816;4.416;2023-01-10T06:18:57;39.78;;;4.97;;
25752;SDS011;13600;50.816;4.416;2023-01-10T06:21:23;29.67;;;6.03;;
25752;SDS011;13600;50.816;4.416;2023-01-10T06:23:48;40.53;;;4.20;;
25752;SDS011;13600;50.816;4.416;2023-01-10T06:26:14;26.10;;;3.30;;
25752;SDS011;13600;50.816;4.416;2023-01-10T06:28:40;35.17;;;4.43;;
25752;SDS011;13600;50.816;4.416;2023-01-10T06:31:08;35.00;;;4.57;;
25752;SDS011;13600;50.816;4.416;2023-01-10T06:33:34;37.10;;;4.30;;
25752;SDS011;13600;50.816;4.416;2023-01-10T06:36:00;37.40;;;4.35;;
25752;SDS011;13600;50.816;4.416;2023-01-10T06:38:26;37.55;;;4.72;;
25752;SDS011;13600;50.816;4.416;2023-01-10T06:40:52;27.42;;;4.40;;
25752;SDS011;13600;50.816;4.416;2023-01-10T06:43:17;31.58;;;4.82;;
25752;SDS011;13600;50.816;4.416;2023-01-10T06:45:43;27.95;;;4.07;;
25752;SDS011;13600;50.816;4.416;2023-01-10T06:48:09;23.90;;;4.03;;
25752;SDS011;13600;50.816;4.416;2023-01-10T06:50:34;34.70;;;4.30;;
25752;SDS011;13600;50.816;4.416;2023-01-10T06:53:01;35.17;;;4.65;;
25752;SDS011;13600;50.816;4.416;2023-01-10T06:55:28;28.98;;;4.25;;
25752;SDS011;13600;50.816;4.416;2023-01-10T06:57:55;25.55;;;3.92;;
25752;SDS011;13600;50.816;4.416;2023-01-10T07:00:21;47.42;;;4.57;;
25752;SDS011;13600;50.816;4.416;2023-01-10T07:02:47;32.13;;;3.78;;
25752;SDS011;13600;50.816;4.416;2023-01-10T07:05:13;32.30;;;3.90;;
25752;SDS011;13600;50.816;4.416;2023-01-10T07:07:39;33.85;;;4.57;;
25752;SDS011;13600;50.816;4.416;2023-01-10T07:10:04;30.67;;;3.80;;
25752;SDS011;13600;50.816;4.416;2023-01-10T07:12:30;35.08;;;4.72;;
25752;SDS011;13600;50.816;4.416;2023-01-10T07:14:56;29.85;;;3.90;;
25752;SDS011;13600;50.816;4.416;2023-01-10T07:17:23;33.67;;;3.88;;
25752;SDS011;13600;50.816;4.416;2023-01-10T07:19:48;33.50;;;5.38;;
25752;SDS011;13600;50.816;4.416;2023-01-10T07:22:14;30.30;;;4.97;;
25752;SDS011;13600;50.816;4.416;2023-01-10T07:24:39;27.25;;;4.20;;
25752;SDS011;13600;50.816;4.416;2023-01-10T07:27:05;23.33;;;4.03;;
25752;SDS011;13600;50.816;4.416;2023-01-10T07:29:31;28.65;;;4.32;;
25752;SDS011;13600;50.816;4.416;2023-01-10T07:31:57;31.50;;;4.38;;
25752;SDS011;13600;50.816;4.416;2023-01-10T07:34:22;28.15;;;4.10;;
25752;SDS011;13600;50.816;4.416;2023-01-10T07:36:48;21.90;;;4.45;;
25752;SDS011;13600;50.816;4.416;2023-01-10T07:39:13;34.08;;;4.32;;
25752;SDS011;13600;50.816;4.416;2023-01-10T07:41:40;28.27;;;4.28;;
25752;SDS011;13600;50.816;4.416;2023-01-10T07:44:06;20.02;;;3.97;;
25752;SDS011;13600;50.816;4.416;2023-01-10T07:46:32;39.03;;;4.60;;
25752;SDS011;13600;50.816;4.416;2023-01-10T07:48:57;32.88;;;4.50;;
25752;SDS011;13600;50.816;4.416;2023-01-10T07:51:23;33.85;;;4.18;;
25752;SDS011;13600;50.816;4.416;2023-01-10T07:53:48;33.85;;;4.85;;
25752;SDS011;13600;50.816;4.416;2023-01-10T07:56:14;29.52;;;3.92;;
25752;SDS011;13600;50.816;4.416;2023-01-10T07:58:40;26.85;;;4.53;;
25752;SDS011;13600;50.816;4.416;2023-01-10T08:01:06;35.47;;;5.15;;
25752;SDS011;13600;50.816;4.416;2023-01-10T08:03:31;35.47;;;5.07;;
25752;SDS011;13600;50.816;4.416;2023-01-10T08:05:58;36.08;;;4.38;;
25752;SDS011;13600;50.816;4.416;2023-01-10T08:08:24;37.72;;;5.97;;
25752;SDS011;13600;50.816;4.416;2023-01-10T08:10:50;35.72;;;3.85;;
25752;SDS011;13600;50.816;4.416;2023-01-10T08:13:16;36.67;;;4.35;;
25752;SDS011;13600;50.816;4.416;2023-01-10T08:15:42;26.83;;;4.88;;
25752;SDS011;13600;50.816;4.416;2023-01-10T08:18:09;26.80;;;4.20;;
25752;SDS011;13600;50.816;4.416;2023-01-10T08:20:35;19.00;;;3.78;;
25752;SDS011;13600;50.816;4.416;2023-01-10T08:23:00;24.45;;;4.03;;
25752;SDS011;13600;50.816;4.416;2023-01-10T08:25:26;26.48;;;4.30;;
25752;SDS011;13600;50.816;4.416;2023-01-10T08:27:51;29.92;;;4.90;;
25752;SDS011;13600;50.816;4.416;2023-01-10T08:30:18;32.20;;;4.57;;
25752;SDS011;13600;50.816;4.416;2023-01-10T08:32:44;29.73;;;4.20;;
25752;SDS011;13600;50.816;4.416;2023-01-10T08:35:10;29.08;;;4.10;;
25752;SDS011;13600;50.816;4.416;2023-01-10T08:37:36;21.23;;;4.53;;
25752;SDS011;13600;50.816;4.416;2023-01-10T08:40:02;30.95;;;5.15;;
25752;SDS011;13600;50.816;4.416;2023-01-10T08:42:28;30.65;;;4.47;;
25752;SDS011;13600;50.816;4.416;2023-01-10T08:44:54;29.65;;;3.95;;
25752;SDS011;13600;50.816;4.416;2023-01-10T08:47:19;39.30;;;5.15;;
25752;SDS011;13600;50.816;4.416;2023-01-10T08:49:45;33.65;;;4.60;;
25752;SDS011;13600;50.816;4.416;2023-01-10T08:52:14;26.77;;;4.40;;
25752;SDS011;13600;50.816;4.416;2023-01-10T08:54:40;31.75;;;5.53;;
25752;SDS011;13600;50.816;4.416;2023-01-10T08:57:06;32.15;;;4.75;;
25752;SDS011;13600;50.816;4.416;2023-01-10T08:59:31;35.55;;;5.18;;
25752;SDS011;13600;50.816;4.416;2023-01-10T09:01:57;29.38;;;5.60;;
25752;SDS011;13600;50.816;4.416;2023-01-10T09:04:24;22.88;;;4.68;;
25752;SDS011;13600;50.816;4.416;2023-01-10T09:06:51;27.50;;;4.32;;
25752;SDS011;13600;50.816;4.416;2023-01-10T09:09:16;23.58;;;4.43;;
25752;SDS011;13600;50.816;4.416;2023-01-10T09:11:42;25.73;;;4.30;;
25752;SDS011;13600;50.816;4.416;2023-01-10T09:14:08;30.30;;;4.43;;
25752;SDS011;13600;50.816;4.416;2023-01-10T09:16:33;32.45;;;5.15;;
25752;SDS011;13600;50.816;4.416;2023-01-10T09:18:59;27.67;;;4.63;;
25752;SDS011;13600;50.816;4.416;2023-01-10T09:21:26;29.48;;;4.68;;
25752;SDS011;13600;50.816;4.416;2023-01-10T09:23:52;28.58;;;4.30;;
25752;SDS011;13600;50.816;4.416;2023-01-10T09:26:18;27.55;;;4.68;;
25752;SDS011;13600;50.816;4.416;2023-01-10T09:28:43;32.92;;;5.00;;
25752;SDS011;13600;50.816;4.416;2023-01-10T09:31:09;25.88;;;3.85;;
25752;SDS011;13600;50.816;4.416;2023-01-10T09:33:35;26.73;;;4.28;;
25752;SDS011;13600;50.816;4.416;2023-01-10T09:36:02;23.10;;;4.45;;
25752;SDS011;13600;50.816;4.416;2023-01-10T09:38:28;30.15;;;5.55;;
25752;SDS011;13600;50.816;4.416;2023-01-10T09:52:08;25.75;;;4.55;;
25752;SDS011;13600;50.816;4.416;2023-01-10T09:54:44;34.10;;;5.28;;
25752;SDS011;13600;50.816;4.416;2023-01-10T09:57:14;28.88;;;5.25;;
25752;SDS011;13600;50.816;4.416;2023-01-10T09:59:43;39.75;;;5.43;;
25752;SDS011;13600;50.816;4.416;2023-01-10T10:02:54;32.35;;;5.68;;
25752;SDS011;13600;50.816;4.416;2023-01-10T10:05:11;25.40;;;4.50;;
25752;SDS011;13600;50.816;4.416;2023-01-10T10:07:43;25.80;;;4.43;;
25752;SDS011;13600;50.816;4.416;2023-01-10T10:10:17;25.90;;;4.75;;
25752;SDS011;13600;50.816;4.416;2023-01-10T10:13:00;27.85;;;3.90;;
25752;SDS011;13600;50.816;4.416;2023-01-10T10:31:18;28.25;;;4.30;;
25752;SDS011;13600;50.816;4.416;2023-01-10T10:39:33;24.23;;;4.53;;
25752;SDS011;13600;50.816;4.416;2023-01-10T10:42:02;28.73;;;3.88;;
25752;SDS011;13600;50.816;4.416;2023-01-10T10:44:36;24.42;;;3.88;;
25752;SDS011;13600;50.816;4.416;2023-01-10T10:47:16;26.95;;;4.07;;
25752;SDS011;13600;50.816;4.416;2023-01-10T10:52:49;27.05;;;4.78;;
25752;SDS011;13600;50.816;4.416;2023-01-10T10:55:15;30.13;;;3.88;;
25752;SDS011;13600;50.816;4.416;2023-01-10T10:57:43;34.88;;;3.88;;
25752;SDS011;13600;50.816;4.416;2023-01-10T11:00:19;27.55;;;3.80;;
25752;SDS011;13600;50.816;4.416;2023-01-10T11:02:50;28.85;;;4.25;;
25752;SDS011;13600;50.816;4.416;2023-01-10T11:05:22;21.70;;;4.13;;
25752;SDS011;13600;50.816;4.416;2023-01-10T11:07:58;27.55;;;4.60;;
25752;SDS011;13600;50.816;4.416;2023-01-10T11:10:30;23.63;;;3.67;;
25752;SDS011;13600;50.816;4.416;2023-01-10T11:15:56;34.28;;;4.57;;
25752;SDS011;13600;50.816;4.416;2023-01-10T11:18:30;20.95;;;3.92;;
25752;SDS011;13600;50.816;4.416;2023-01-10T11:21:11;24.27;;;3.78;;
25752;SDS011;13600;50.816;4.416;2023-01-10T11:26:56;20.52;;;3.30;;
25752;SDS011;13600;50.816;4.416;2023-01-10T11:29:37;35.03;;;5.03;;
25752;SDS011;13600;50.816;4.416;2023-01-10T11:32:13;32.30;;;4.50;;
25752;SDS011;13600;50.816;4.416;2023-01-10T11:34:46;29.77;;;4.57;;
25752;SDS011;13600;50.816;4.416;2023-01-10T11:39:46;28.88;;;4.10;;
25752;SDS011;13600;50.816;4.416;2023-01-10T11:42:25;28.92;;;4.30;;
25752;SDS011;13600;50.816;4.416;2023-01-10T11:45:41;26.27;;;4.53;;
25752;SDS011;13600;50.816;4.416;2023-01-10T11:47:44;28.25;;;3.97;;
25752;SDS011;13600;50.816;4.416;2023-01-10T11:50:18;24.98;;;3.75;;
25752;SDS011;13600;50.816;4.416;2023-01-10T11:52:49;27.00;;;4.00;;
25752;SDS011;13600;50.816;4.416;2023-01-10T11:55:19;31.67;;;4.60;;
25752;SDS011;13600;50.816;4.416;2023-01-10T11:57:54;24.63;;;4.30;;
25752;SDS011;13600;50.816;4.416;2023-01-10T12:00:45;26.10;;;4.32;;
25752;SDS011;13600;50.816;4.416;2023-01-10T12:03:14;26.65;;;4.38;;
25752;SDS011;13600;50.816;4.416;2023-01-10T12:05:53;31.67;;;4.40;;
25752;SDS011;13600;50.816;4.416;2023-01-10T12:08:25;28.52;;;4.50;;
25752;SDS011;13600;50.816;4.416;2023-01-10T12:10:57;29.20;;;4.25;;
25752;SDS011;13600;50.816;4.416;2023-01-10T12:13:26;29.05;;;4.38;;
25752;SDS011;13600;50.816;4.416;2023-01-10T12:16:13;32.08;;;5.05;;
25752;SDS011;13600;50.816;4.416;2023-01-10T12:18:39;24.20;;;3.85;;
25752;SDS011;13600;50.816;4.416;2023-01-10T12:21:05;30.23;;;4.53;;
25752;SDS011;13600;50.816;4.416;2023-01-10T12:23:32;26.10;;;3.72;;
25752;SDS011;13600;50.816;4.416;2023-01-10T12:26:04;30.42;;;4.55;;
25752;SDS011;13600;50.816;4.416;2023-01-10T12:28:37;36.57;;;5.50;;
25752;SDS011;13600;50.816;4.416;2023-01-10T12:31:09;27.92;;;3.80;;
25752;SDS011;13600;50.816;4.416;2023-01-10T12:33:40;28.15;;;3.70;;
25752;SDS011;13600;50.816;4.416;2023-01-10T12:38:45;27.95;;;3.95;;
25752;SDS011;13600;50.816;4.416;2023-01-10T12:47:04;20.73;;;4.40;;
25752;SDS011;13600;50.816;4.416;2023-01-10T12:49:34;22.35;;;3.72;;
25752;SDS011;13600;50.816;4.416;2023-01-10T12:52:27;22.63;;;4.20;;
25752;SDS011;13600;50.816;4.416;2023-01-10T12:54:53;28.17;;;4.50;;
25752;SDS011;13600;50.816;4.416;2023-01-10T12:57:21;23.88;;;3.30;;
25752;SDS011;13600;50.816;4.416;2023-01-10T12:59:57;25.90;;;3.78;;
25752;SDS011;13600;50.816;4.416;2023-01-10T13:02:27;38.92;;;4.65;;
25752;SDS011;13600;50.816;4.416;2023-01-10T13:04:58;23.63;;;3.55;;
25752;SDS011;13600;50.816;4.416;2023-01-10T13:07:28;21.33;;;3.53;;
25752;SDS011;13600;50.816;4.416;2023-01-10T13:09:57;26.70;;;3.85;;
25752;SDS011;13600;50.816;4.416;2023-01-10T13:17:58;18.40;;;3.55;;
25752;SDS011;13600;50.816;4.416;2023-01-10T13:20:28;26.60;;;4.60;;
25752;SDS011;13600;50.816;4.416;2023-01-10T13:23:10;28.95;;;4.15;;
25752;SDS011;13600;50.816;4.416;2023-01-10T13:26:04;22.75;;;3.88;;
25752;SDS011;13600;50.816;4.416;2023-01-10T13:28:33;22.38;;;4.35;;
25752;SDS011;13600;50.816;4.416;2023-01-10T13:31:05;30.15;;;4.88;;
25752;SDS011;13600;50.816;4.416;2023-01-10T13:36:14;23.10;;;3.30;;
25752;SDS011;13600;50.816;4.416;2023-01-10T13:38:52;27.13;;;4.28;;
25752;SDS011;13600;50.816;4.416;2023-01-10T13:41:20;22.58;;;4.18;;
25752;SDS011;13600;50.816;4.416;2023-01-10T13:44:06;27.45;;;4.10;;
25752;SDS011;13600;50.816;4.416;2023-01-10T13:46:35;25.55;;;3.90;;
25752;SDS011;13600;50.816;4.416;2023-01-10T13:51:34;20.15;;;3.47;;
25752;SDS011;13600;50.816;4.416;2023-01-10T13:54:03;30.48;;;4.47;;
25752;SDS011;13600;50.816;4.416;2023-01-10T13:56:49;25.33;;;3.97;;
25752;SDS011;13600;50.816;4.416;2023-01-10T14:02:12;19.67;;;3.60;;
25752;SDS011;13600;50.816;4.416;2023-01-10T14:05:06;32.42;;;4.45;;
25752;SDS011;13600;50.816;4.416;2023-01-10T14:07:50;23.52;;;3.90;;
25752;SDS011;13600;50.816;4.416;2023-01-10T14:10:21;25.80;;;3.65;;
25752;SDS011;13600;50.816;4.416;2023-01-10T14:17:54;15.50;;;3.17;;
25752;SDS011;13600;50.816;4.416;2023-01-10T14:21:06;19.40;;;3.42;;
25752;SDS011;13600;50.816;4.416;2023-01-10T14:23:34;19.33;;;3.33;;
25752;SDS011;13600;50.816;4.416;2023-01-10T14:26:05;23.70;;;3.28;;
25752;SDS011;13600;50.816;4.416;2023-01-10T14:28:41;20.67;;;3.92;;
25752;SDS011;13600;50.816;4.416;2023-01-10T14:33:42;20.13;;;2.90;;
25752;SDS011;13600;50.816;4.416;2023-01-10T14:36:08;13.15;;;2.75;;
25752;SDS011;13600;50.816;4.416;2023-01-10T14:38:40;15.95;;;2.67;;
25752;SDS011;13600;50.816;4.416;2023-01-10T14:49:19;10.35;;;2.30;;
25752;SDS011;13600;50.816;4.416;2023-01-10T14:51:47;16.90;;;2.50;;
25752;SDS011;13600;50.816;4.416;2023-01-10T14:54:14;10.93;;;1.98;;
25752;SDS011;13600;50.816;4.416;2023-01-10T14:56:49;9.68;;;2.17;;
25752;SDS011;13600;50.816;4.416;2023-01-10T15:01:49;8.85;;;1.70;;
25752;SDS011;13600;50.816;4.416;2023-01-10T15:04:18;7.93;;;1.75;;
25752;SDS011;13600;50.816;4.416;2023-01-10T15:09:37;7.63;;;1.45;;
25752;SDS011;13600;50.816;4.416;2023-01-10T15:12:04;6.93;;;1.52;;
25752;SDS011;13600;50.816;4.416;2023-01-10T15:14:32;6.10;;;1.50;;
25752;SDS011;13600;50.816;4.416;2023-01-10T15:16:59;6.78;;;1.50;;
25752;SDS011;13600;50.816;4.416;2023-01-10T15:19:30;7.78;;;1.63;;
25752;SDS011;13600;50.816;4.416;2023-01-10T15:21:58;4.07;;;1.50;;
25752;SDS011;13600;50.816;4.416;2023-01-10T15:27:01;4.90;;;1.50;;
25752;SDS011;13600;50.816;4.416;2023-01-10T15:29:28;3.30;;;1.02;;
25752;SDS011;13600;50.816;4.416;2023-01-10T15:32:00;8.10;;;1.48;;
25752;SDS011;13600;50.816;4.416;2023-01-10T15:34:32;4.28;;;1.20;;
25752;SDS011;13600;50.816;4.416;2023-01-10T15:36:58;3.97;;;1.30;;
25752;SDS011;13600;50.816;4.416;2023-01-10T15:39:33;4.30;;;1.00;;
25752;SDS011;13600;50.816;4.416;2023-01-10T15:42:02;4.88;;;1.38;;
25752;SDS011;13600;50.816;4.416;2023-01-10T15:44:33;6.07;;;1.30;;
25752;SDS011;13600;50.816;4.416;2023-01-10T15:47:03;2.17;;;1.30;;
25752;SDS011;13600;50.816;4.416;2023-01-10T15:49:29;3.38;;;1.00;;
25752;SDS011;13600;50.816;4.416;2023-01-10T15:51:55;3.88;;;1.25;;
25752;SDS011;13600;50.816;4.416;2023-01-10T15:56:49;3.35;;;1.20;;
25752;SDS011;13600;50.816;4.416;2023-01-10T16:01:53;2.40;;;1.30;;
25752;SDS011;13600;50.816;4.416;2023-01-10T16:04:22;2.35;;;1.17;;
25752;SDS011;13600;50.816;4.416;2023-01-10T16:06:49;2.92;;;1.20;;
25752;SDS011;13600;50.816;4.416;2023-01-10T16:09:28;2.08;;;1.20;;
25752;SDS011;13600;50.816;4.416;2023-01-10T16:11:55;3.13;;;1.40;;
25752;SDS011;13600;50.816;4.416;2023-01-10T16:14:39;3.00;;;1.20;;
25752;SDS011;13600;50.816;4.416;2023-01-10T16:17:05;1.90;;;1.02;;
25752;SDS011;13600;50.816;4.416;2023-01-10T16:19:31;6.88;;;1.48;;
25752;SDS011;13600;50.816;4.416;2023-01-10T16:21:58;2.95;;;1.45;;
25752;SDS011;13600;50.816;4.416;2023-01-10T16:24:28;4.00;;;1.08;;
25752;SDS011;13600;50.816;4.416;2023-01-10T16:26:56;1.83;;;1.10;;
25752;SDS011;13600;50.816;4.416;2023-01-10T16:29:25;2.92;;;1.30;;
25752;SDS011;13600;50.816;4.416;2023-01-10T16:31:51;4.32;;;1.17;;
25752;SDS011;13600;50.816;4.416;2023-01-10T16:34:17;1.77;;;1.00;;
25752;SDS011;13600;50.816;4.416;2023-01-10T16:36:44;1.90;;;1.00;;
25752;SDS011;13600;50.816;4.416;2023-01-10T16:39:19;3.22;;;0.93;;
25752;SDS011;13600;50.816;4.416;2023-01-10T16:41:47;2.20;;;1.00;;
25752;SDS011;13600;50.816;4.416;2023-01-10T16:44:32;4.30;;;1.15;;
25752;SDS011;13600;50.816;4.416;2023-01-10T16:46:58;1.58;;;0.95;;
25752;SDS011;13600;50.816;4.416;2023-01-10T16:49:25;1.40;;;0.90;;
25752;SDS011;13600;50.816;4.416;2023-01-10T16:51:51;2.25;;;1.10;;
25752;SDS011;13600;50.816;4.416;2023-01-10T16:54:21;2.13;;;1.15;;
25752;SDS011;13600;50.816;4.416;2023-01-10T16:56:49;3.17;;;1.20;;
25752;SDS011;13600;50.816;4.416;2023-01-10T16:59:15;1.70;;;0.90;;
25752;SDS011;13600;50.816;4.416;2023-01-10T17:01:54;1.27;;;1.10;;
25752;SDS011;13600;50.816;4.416;2023-01-10T17:04:22;2.63;;;1.10;;
25752;SDS011;13600;50.816;4.416;2023-01-10T17:06:49;3.40;;;1.30;;
25752;SDS011;13600;50.816;4.416;2023-01-10T17:09:27;3.65;;;1.20;;